Sea Sub — WDE5399 — position and weather

sailwx.info

Track history (hours):
 
Tides and Currents Weather Stations Pressure Air Temp Water Temp Dewpoint Dewpoint Depression Visibility Wind Speed Wind Dir Waves Ship Positions

Sea Sub

Owner: Sea Sub Systems, Inc., Indian Rocks Beach, FL. More information available from US FCC via Universal Licensing System and Coast Guard Vessel Documentation Center.

Last reported at 2018-May-13 01:23 UTC. Time now 2018-May-20 14:00 UTC.
Position N 27°42' W 082°36'.

Length 30 m.

MMSI: 367366150.

Date/timePositionNaut miles runAvg speedWind from/ knotsBaromVisibWave heightAir tempDewpointWater temp
2018-May-13 01:23N 27°42' W 082°36'615.2
2018-May-13 00:58N 27°48' W 082°34'511.3
2018-May-13 00:30N 27°53' W 082°33'12 0.4
2018-May-11 16:35N 27°42' W 082°37'116.8
2018-May-11 16:30N 27°43' W 082°35'816.4
2018-May-11 16:00N 27°48' W 082°28'815.6
2018-May-11 15:30N 27°56' W 082°26'1 2.3
2018-May-11 15:00N 27°55' W 082°27'0 0.0
2018-May-11 14:30N 27°55' W 082°27'1 2.4
2018-May-11 14:00N 27°56' W 082°26'0 0.0
2018-May-11 13:30N 27°56' W 082°26'0 0.0
2018-May-11 13:00N 27°56' W 082°26'0 0.0
2018-May-11 12:30N 27°56' W 082°26'0 0.1
2018-May-11 12:00N 27°56' W 082°26'0 0.1
2018-May-11 11:30N 27°56' W 082°26'3 6.6
2018-May-11 11:01N 27°52' W 082°27'816.2
2018-May-11 10:31N 27°46' W 082°32'5 0.1
2018-May-09 14:40N 27°43' W 082°36'318.2
2018-May-09 14:30N 27°45' W 082°34'816.9
2018-May-09 14:01N 27°50' W 082°27'510.7
2018-May-09 13:31N 27°56' W 082°26'1 2.0
2018-May-09 13:00N 27°55' W 082°27'0 0.0
2018-May-09 12:30N 27°55' W 082°27'1 1.1
2018-May-09 12:00N 27°55' W 082°27'1 2.7
2018-May-09 11:30N 27°56' W 082°26'2 4.5
2018-May-09 11:00N 27°54' W 082°26'815.7
2018-May-09 10:30N 27°47' W 082°31'6 0.3
2018-May-08 16:00N 27°42' W 082°36'815.5
2018-May-08 15:30N 27°47' W 082°30'715.1
2018-May-08 15:00N 27°54' W 082°26'1 2.0
2018-May-08 14:30N 27°55' W 082°27'2 3.5
2018-May-08 14:00N 27°57' W 082°27'0 0.0
2018-May-08 13:30N 27°57' W 082°27'2 4.5
2018-May-08 13:00N 27°55' W 082°26'1 2.0
2018-May-08 12:30N 27°56' W 082°26'0 0.0
2018-May-08 12:00N 27°56' W 082°26'0 0.2
2018-May-08 11:30N 27°56' W 082°26'4 8.8
2018-May-08 11:00N 27°51' W 082°27'13 0.6
2018-May-07 14:56N 27°42' W 082°37'717.4
2018-May-07 14:30N 27°47' W 082°30'816.2
2018-May-07 14:00N 27°54' W 082°26'1 2.6
2018-May-07 13:30N 27°55' W 082°25'1 2.3
2018-May-07 13:01N 27°55' W 082°27'0 0.0
2018-May-07 12:30N 27°55' W 082°27'1 2.4
2018-May-07 12:01N 27°56' W 082°26'0 0.0
2018-May-07 11:31N 27°56' W 082°26'0 0.0
2018-May-07 11:01N 27°56' W 082°26'0 1.0
2018-May-07 10:30N 27°55' W 082°26'713.8
2018-May-07 10:01N 27°49' W 082°28'  
Track history (hours):
 
Tides and Currents Weather Stations Pressure Air Temp Water Temp Dewpoint Dewpoint Depression Visibility Wind Speed Wind Dir Waves Ship Positions

Sea Sub

Owner: Sea Sub Systems, Inc., Indian Rocks Beach, FL. More information available from US FCC via Universal Licensing System and Coast Guard Vessel Documentation Center.

Last reported at 2018-May-13 01:23 UTC. Time now 2018-May-20 14:00 UTC.
Position N 27°42' W 082°36'.

Length 30 m.

MMSI: 367366150.

Date/timePositionNaut miles runAvg speedWind from/ knotsBaromVisibWave heightAir tempDewpointWater temp
2018-May-13 01:23N 27°42' W 082°36'615.2
2018-May-13 00:58N 27°48' W 082°34'511.3
2018-May-13 00:30N 27°53' W 082°33'12 0.4
2018-May-11 16:35N 27°42' W 082°37'116.8
2018-May-11 16:30N 27°43' W 082°35'816.4
2018-May-11 16:00N 27°48' W 082°28'815.6
2018-May-11 15:30N 27°56' W 082°26'1 2.3
2018-May-11 15:00N 27°55' W 082°27'0 0.0
2018-May-11 14:30N 27°55' W 082°27'1 2.4
2018-May-11 14:00N 27°56' W 082°26'0 0.0
2018-May-11 13:30N 27°56' W 082°26'0 0.0
2018-May-11 13:00N 27°56' W 082°26'0 0.0
2018-May-11 12:30N 27°56' W 082°26'0 0.1
2018-May-11 12:00N 27°56' W 082°26'0 0.1
2018-May-11 11:30N 27°56' W 082°26'3 6.6
2018-May-11 11:01N 27°52' W 082°27'816.2
2018-May-11 10:31N 27°46' W 082°32'5 0.1
2018-May-09 14:40N 27°43' W 082°36'318.2
2018-May-09 14:30N 27°45' W 082°34'816.9
2018-May-09 14:01N 27°50' W 082°27'510.7
2018-May-09 13:31N 27°56' W 082°26'1 2.0
2018-May-09 13:00N 27°55' W 082°27'0 0.0
2018-May-09 12:30N 27°55' W 082°27'1 1.1
2018-May-09 12:00N 27°55' W 082°27'1 2.7
2018-May-09 11:30N 27°56' W 082°26'2 4.5
2018-May-09 11:00N 27°54' W 082°26'815.7
2018-May-09 10:30N 27°47' W 082°31'6 0.3
2018-May-08 16:00N 27°42' W 082°36'815.5
2018-May-08 15:30N 27°47' W 082°30'715.1
2018-May-08 15:00N 27°54' W 082°26'1 2.0
2018-May-08 14:30N 27°55' W 082°27'2 3.5
2018-May-08 14:00N 27°57' W 082°27'0 0.0
2018-May-08 13:30N 27°57' W 082°27'2 4.5
2018-May-08 13:00N 27°55' W 082°26'1 2.0
2018-May-08 12:30N 27°56' W 082°26'0 0.0
2018-May-08 12:00N 27°56' W 082°26'0 0.2
2018-May-08 11:30N 27°56' W 082°26'4 8.8
2018-May-08 11:00N 27°51' W 082°27'13 0.6
2018-May-07 14:56N 27°42' W 082°37'717.4
2018-May-07 14:30N 27°47' W 082°30'816.2
2018-May-07 14:00N 27°54' W 082°26'1 2.6
2018-May-07 13:30N 27°55' W 082°25'1 2.3
2018-May-07 13:01N 27°55' W 082°27'0 0.0
2018-May-07 12:30N 27°55' W 082°27'1 2.4
2018-May-07 12:01N 27°56' W 082°26'0 0.0
2018-May-07 11:31N 27°56' W 082°26'0 0.0
2018-May-07 11:01N 27°56' W 082°26'0 1.0
2018-May-07 10:30N 27°55' W 082°26'713.8
2018-May-07 10:01N 27°49' W 082°28'  

Dump ship's entire track history